createdAt,value
2023-05-13T00:02:45.845Z,446.87
2023-05-13T00:07:48.086Z,446.57
2023-05-13T00:12:50.244Z,421.43
2023-05-13T00:17:52.428Z,430.63
2023-05-13T00:22:54.608Z,442.63
2023-05-13T00:27:56.788Z,365.50
2023-05-13T00:32:59.092Z,361.63
2023-05-13T00:38:01.354Z,346.80
2023-05-13T00:43:03.949Z,347.67
2023-05-13T00:48:08.548Z,427.83
2023-05-13T00:53:12.688Z,462.83
2023-05-13T00:58:14.998Z,471.13
2023-05-13T01:03:32.608Z,459.87
2023-05-13T01:09:19.857Z,408.63
2023-05-13T01:14:35.751Z,438.03
2023-05-13T01:19:56.045Z,419.93
2023-05-13T01:24:58.557Z,404.93
2023-05-13T01:30:01.071Z,398.37
2023-05-13T01:35:08.611Z,402.67
2023-05-13T01:40:30.916Z,472.00
2023-05-13T01:45:39.285Z,459.37
2023-05-13T01:50:41.698Z,472.73
2023-05-13T01:55:44.436Z,483.30
2023-05-13T02:00:46.785Z,497.77
2023-05-13T02:05:49.226Z,480.93
2023-05-13T02:11:01.209Z,501.53
2023-05-13T02:16:05.596Z,412.97
2023-05-13T02:21:08.042Z,440.03
2023-05-13T02:26:10.343Z,479.50
2023-05-13T02:31:12.691Z,471.27
2023-05-13T02:36:16.541Z,475.70
2023-05-13T02:41:19.231Z,480.83
2023-05-13T02:46:23.220Z,484.40
2023-05-13T02:51:25.673Z,472.00
2023-05-13T02:56:28.013Z,431.30
2023-05-13T03:01:31.241Z,429.07
2023-05-13T03:06:33.477Z,436.53
2023-05-13T03:11:36.010Z,422.20
2023-05-13T03:16:38.460Z,424.30
2023-05-13T03:21:40.786Z,458.83
2023-05-13T03:26:46.273Z,484.00
2023-05-13T03:31:49.835Z,493.20
2023-05-13T03:36:52.171Z,493.57
2023-05-13T03:41:54.776Z,477.27
2023-05-13T03:46:57.101Z,459.73
2023-05-13T03:52:00.436Z,423.07
2023-05-13T03:57:03.839Z,420.50
2023-05-13T04:02:06.681Z,390.50
2023-05-13T04:07:09.154Z,403.00
2023-05-13T04:12:11.554Z,414.87
2023-05-13T04:17:14.752Z,438.43
2023-05-13T04:22:16.877Z,431.40
2023-05-13T04:27:18.973Z,419.27
2023-05-13T04:32:23.240Z,450.87
2023-05-13T04:37:28.723Z,398.90
2023-05-13T04:42:34.769Z,385.00
2023-05-13T04:47:38.446Z,386.07
2023-05-13T04:52:43.071Z,416.93
2023-05-13T04:57:46.050Z,418.03
2023-05-13T05:02:48.537Z,419.77
2023-05-13T05:07:51.077Z,480.27
2023-05-13T05:12:54.893Z,438.33
2023-05-13T05:17:58.527Z,383.47
2023-05-13T05:23:01.949Z,368.83
2023-05-13T05:28:05.895Z,387.73
2023-05-13T05:33:09.804Z,406.37
2023-05-13T05:38:16.142Z,443.63
2023-05-13T05:43:18.484Z,443.10
2023-05-13T05:48:20.658Z,437.10
2023-05-13T05:53:24.995Z,459.67
2023-05-13T05:58:27.528Z,408.47
2023-05-13T06:03:29.935Z,389.23
2023-05-13T06:08:32.600Z,374.93
2023-05-13T06:13:34.880Z,387.63
2023-05-13T06:18:37.621Z,379.17
2023-05-13T06:23:40.115Z,391.07
2023-05-13T06:28:42.264Z,428.53
2023-05-13T06:33:44.374Z,464.40
2023-05-13T06:38:46.532Z,470.60
2023-05-13T06:43:49.143Z,458.70
2023-05-13T06:48:58.102Z,435.80
2023-05-13T06:54:00.827Z,397.93
2023-05-13T06:59:06.026Z,390.83
2023-05-13T07:04:08.462Z,390.47
2023-05-13T07:09:10.626Z,430.00
2023-05-13T07:14:12.794Z,470.53
2023-05-13T07:19:14.940Z,438.63
2023-05-13T07:24:17.282Z,436.77
2023-05-13T07:29:19.456Z,455.30
2023-05-13T07:34:22.002Z,439.80
2023-05-13T07:39:24.528Z,466.37
2023-05-13T07:44:26.720Z,493.33
2023-05-13T07:49:28.937Z,422.87
2023-05-13T07:54:31.031Z,413.13
2023-05-13T07:59:33.307Z,413.03
2023-05-13T08:04:35.669Z,428.33
2023-05-13T08:09:38.360Z,421.67
2023-05-13T08:14:40.584Z,416.97
2023-05-13T08:19:42.989Z,408.20
2023-05-13T08:24:45.148Z,445.37
2023-05-13T08:29:47.247Z,457.40
2023-05-13T08:34:50.679Z,430.40
2023-05-13T08:39:52.879Z,440.00
2023-05-13T08:44:55.545Z,462.13
2023-05-13T08:49:58.211Z,436.23
2023-05-13T08:55:03.549Z,423.90
2023-05-13T09:00:07.153Z,439.77
2023-05-13T09:05:10.763Z,442.80
2023-05-13T09:10:12.961Z,566.37
2023-05-13T09:15:21.617Z,568.40
2023-05-13T09:20:26.204Z,580.93
2023-05-13T09:25:30.065Z,528.27
2023-05-13T09:30:36.860Z,515.33
2023-05-13T09:35:53.705Z,513.00
2023-05-13T09:41:00.570Z,575.57
2023-05-13T09:46:05.352Z,500.37
2023-05-13T09:51:07.806Z,501.57
2023-05-13T09:56:10.699Z,491.23
2023-05-13T10:01:12.933Z,525.03
2023-05-13T10:06:18.351Z,548.93
2023-05-13T10:11:21.681Z,549.30
2023-05-13T10:16:26.102Z,548.37
2023-05-13T10:21:28.825Z,553.03
2023-05-13T10:26:32.535Z,515.80
2023-05-13T10:31:35.551Z,512.60
2023-05-13T10:37:21.753Z,515.07
2023-05-13T10:42:46.206Z,572.33
2023-05-13T10:47:51.792Z,582.33
2023-05-13T10:52:58.738Z,589.57
2023-05-13T10:58:13.597Z,556.63
2023-05-13T11:03:20.013Z,601.30
2023-05-13T11:08:55.759Z,594.07
2023-05-13T11:14:14.259Z,669.83
2023-05-13T11:19:30.403Z,608.03
2023-05-13T11:24:32.805Z,540.10
2023-05-13T11:29:37.558Z,530.40
2023-05-13T11:34:51.674Z,547.20
2023-05-13T11:39:53.975Z,603.90
2023-05-13T11:44:57.533Z,562.90
2023-05-13T11:49:59.804Z,517.13
2023-05-13T11:55:01.989Z,493.73
2023-05-13T12:00:10.543Z,488.93
2023-05-13T12:05:12.770Z,511.43
2023-05-13T12:10:15.819Z,502.43
2023-05-13T12:15:20.962Z,529.97
2023-05-13T12:20:25.171Z,525.73
2023-05-13T12:25:48.456Z,548.53
2023-05-13T12:31:08.335Z,544.73
2023-05-13T12:36:36.128Z,468.77
2023-05-13T12:41:41.142Z,490.67
2023-05-13T12:46:54.730Z,539.37
2023-05-13T12:51:57.357Z,580.83
2023-05-13T12:56:59.542Z,569.60
2023-05-13T13:02:01.673Z,556.03
2023-05-13T13:07:05.132Z,570.17
2023-05-13T13:12:07.642Z,607.23
2023-05-13T13:17:10.140Z,624.27
2023-05-13T13:22:12.314Z,712.03
2023-05-13T13:27:14.450Z,753.40
2023-05-13T13:32:16.628Z,734.60
2023-05-13T13:37:18.893Z,714.70
2023-05-13T13:42:22.220Z,672.00
2023-05-13T13:47:25.810Z,669.90
2023-05-13T13:52:28.870Z,667.27
2023-05-13T13:57:31.002Z,624.13
2023-05-13T14:02:33.501Z,583.43
2023-05-13T14:07:38.532Z,581.23
2023-05-13T14:12:41.141Z,565.00
2023-05-13T14:17:43.767Z,571.40
2023-05-13T14:22:45.945Z,579.07
2023-05-13T14:27:48.038Z,592.90
2023-05-13T14:32:50.238Z,586.70
2023-05-13T14:37:52.537Z,576.80
2023-05-13T14:42:54.740Z,580.07
2023-05-13T14:47:56.985Z,583.33
2023-05-13T14:52:59.626Z,591.40
2023-05-13T14:58:01.975Z,535.10
2023-05-13T15:03:04.587Z,544.40
2023-05-13T15:08:08.559Z,560.13
2023-05-13T15:13:11.065Z,548.80
2023-05-13T15:18:14.563Z,569.83
2023-05-13T15:23:16.859Z,598.77
2023-05-13T15:28:19.207Z,606.10
2023-05-13T15:33:21.743Z,592.97
2023-05-13T15:38:24.129Z,616.30
2023-05-13T15:43:26.444Z,604.73
2023-05-13T15:48:29.373Z,606.10
2023-05-13T15:53:31.691Z,540.70
2023-05-13T15:58:33.865Z,540.53
2023-05-13T16:03:38.372Z,568.20
2023-05-13T16:08:41.223Z,546.23
2023-05-13T16:13:43.687Z,576.60
2023-05-13T16:18:46.012Z,565.73
2023-05-13T16:23:48.154Z,558.80
2023-05-13T16:28:50.432Z,539.93
2023-05-13T16:33:52.857Z,508.20
2023-05-13T16:38:55.036Z,510.60
2023-05-13T16:43:57.139Z,527.13
2023-05-13T16:49:00.153Z,490.80
2023-05-13T16:54:02.790Z,440.37
2023-05-13T16:59:05.058Z,454.40
2023-05-13T17:04:07.172Z,448.07
2023-05-13T17:09:09.816Z,452.87
2023-05-13T17:14:12.273Z,436.03
2023-05-13T17:19:14.639Z,474.37
2023-05-13T17:24:16.919Z,486.37
2023-05-13T17:29:19.205Z,482.77
2023-05-13T17:34:21.559Z,478.40
2023-05-13T17:39:23.725Z,473.07
2023-05-13T17:44:25.921Z,518.77
2023-05-13T17:49:28.014Z,483.60
2023-05-13T17:54:30.569Z,409.67
2023-05-13T17:59:32.721Z,401.27
2023-05-13T18:04:34.900Z,373.30
2023-05-13T18:09:37.145Z,386.57
2023-05-13T18:14:39.611Z,381.20
2023-05-13T18:19:41.918Z,394.83
2023-05-13T18:24:44.379Z,410.03
2023-05-13T18:29:46.826Z,443.40
2023-05-13T18:34:49.019Z,415.53
2023-05-13T18:39:51.493Z,420.57
2023-05-13T18:44:53.674Z,439.60
2023-05-13T18:49:55.916Z,440.67
2023-05-13T18:54:58.162Z,446.43
2023-05-13T19:00:00.397Z,398.47
2023-05-13T19:05:02.554Z,362.80
2023-05-13T19:10:04.994Z,382.47
2023-05-13T19:15:08.075Z,400.47
2023-05-13T19:20:11.316Z,393.93
2023-05-13T19:25:13.447Z,447.37
2023-05-13T19:30:16.282Z,451.17
2023-05-13T19:35:18.773Z,466.17
2023-05-13T19:40:21.087Z,456.97
2023-05-13T19:45:23.947Z,466.53
2023-05-13T19:50:26.201Z,463.83
2023-05-13T19:55:28.318Z,472.50
2023-05-13T20:00:30.480Z,438.90
2023-05-13T20:05:32.643Z,404.40
2023-05-13T20:10:36.870Z,405.57
2023-05-13T20:15:39.520Z,403.73
2023-05-13T20:20:42.080Z,413.97
2023-05-13T20:25:47.257Z,440.47
2023-05-13T20:30:53.496Z,454.20
2023-05-13T20:35:55.892Z,442.33
2023-05-13T20:40:58.059Z,456.10
2023-05-13T20:46:03.007Z,401.73
2023-05-13T20:51:06.208Z,375.93
2023-05-13T20:56:10.208Z,355.13
2023-05-13T21:01:12.807Z,363.03
2023-05-13T21:06:14.945Z,402.43
2023-05-13T21:11:17.909Z,452.67
2023-05-13T21:16:20.042Z,448.83
2023-05-13T21:21:22.189Z,443.73
2023-05-13T21:26:25.425Z,455.40
2023-05-13T21:31:27.672Z,458.03
2023-05-13T21:36:29.809Z,443.53
2023-05-13T21:41:32.154Z,331.93
2023-05-13T21:46:34.776Z,309.30
2023-05-13T21:51:36.908Z,304.83
2023-05-13T21:56:39.602Z,302.63
2023-05-13T22:01:42.179Z,420.40
2023-05-13T22:06:44.334Z,416.43
2023-05-13T22:11:46.441Z,438.17
2023-05-13T22:17:00.967Z,464.27
2023-05-13T22:22:11.018Z,381.63
2023-05-13T22:27:13.245Z,419.10
2023-05-13T22:32:15.445Z,417.43
2023-05-13T22:37:17.530Z,417.87
2023-05-13T22:42:19.657Z,416.73
2023-05-13T22:47:21.809Z,427.10
2023-05-13T22:52:23.990Z,395.40
2023-05-13T22:57:27.351Z,415.27
2023-05-13T23:02:29.492Z,414.27
2023-05-13T23:07:31.588Z,363.70
2023-05-13T23:12:33.631Z,63.70
2023-05-13T23:17:35.870Z,14.07
2023-05-13T23:22:38.747Z,36.13
2023-05-13T23:27:41.341Z,216.97
2023-05-13T23:32:43.748Z,350.67
2023-05-13T23:37:45.808Z,352.47
2023-05-13T23:42:47.932Z,259.83
2023-05-13T23:47:51.036Z,408.97
2023-05-13T23:52:53.267Z,365.67
2023-05-13T23:57:56.077Z,261.70
